createdAt,value
2022-09-18T00:00:23.289Z,20.93
2022-09-18T00:02:49.593Z,20.93
2022-09-18T00:05:16.137Z,20.92
2022-09-18T00:07:42.482Z,20.90
2022-09-18T00:10:08.824Z,20.91
2022-09-18T00:12:35.187Z,20.90
2022-09-18T00:15:01.493Z,20.88
2022-09-18T00:17:27.993Z,20.89
2022-09-18T00:19:54.399Z,20.89
2022-09-18T00:22:20.731Z,20.89
2022-09-18T00:24:46.992Z,20.88
2022-09-18T00:27:13.394Z,20.87
2022-09-18T00:29:39.811Z,20.87
2022-09-18T00:32:06.121Z,20.88
2022-09-18T00:34:32.570Z,20.87
2022-09-18T00:36:58.861Z,20.87
2022-09-18T00:39:25.205Z,20.87
2022-09-18T00:41:51.501Z,20.86
2022-09-18T00:44:17.728Z,20.86
2022-09-18T00:46:44.359Z,20.85
2022-09-18T00:49:11.069Z,20.85
2022-09-18T00:51:37.441Z,20.83
2022-09-18T00:54:03.694Z,20.85
2022-09-18T00:56:30.211Z,20.84
2022-09-18T00:58:56.578Z,20.84
2022-09-18T01:01:22.991Z,20.83
2022-09-18T01:03:49.618Z,20.83
2022-09-18T01:06:16.153Z,20.81
2022-09-18T01:08:44.216Z,20.81
2022-09-18T01:11:10.714Z,20.81
2022-09-18T01:13:37.190Z,20.80
2022-09-18T01:16:03.542Z,20.81
2022-09-18T01:18:29.941Z,20.81
2022-09-18T01:20:57.344Z,20.80
2022-09-18T01:23:23.689Z,20.79
2022-09-18T01:25:49.966Z,20.80
2022-09-18T01:28:16.284Z,20.79
2022-09-18T01:30:42.709Z,20.78
2022-09-18T01:33:09.087Z,20.77
2022-09-18T01:35:41.655Z,20.77
2022-09-18T01:38:08.884Z,20.77
2022-09-18T01:40:35.288Z,20.77
2022-09-18T01:43:01.769Z,20.77
2022-09-18T01:45:28.233Z,20.76
2022-09-18T01:47:54.685Z,20.76
2022-09-18T01:50:21.007Z,20.75
2022-09-18T01:52:47.450Z,20.76
2022-09-18T01:55:13.719Z,20.74
2022-09-18T01:57:40.025Z,20.75
2022-09-18T02:00:06.326Z,20.74
2022-09-18T02:02:33.037Z,20.74
2022-09-18T02:04:59.651Z,20.75
2022-09-18T02:07:26.001Z,20.73
2022-09-18T02:09:52.585Z,20.74
2022-09-18T02:12:19.033Z,20.74
2022-09-18T02:14:45.495Z,20.73
2022-09-18T02:17:11.843Z,20.72
2022-09-18T02:19:38.155Z,20.74
2022-09-18T02:22:04.433Z,20.74
2022-09-18T02:24:30.711Z,20.73
2022-09-18T02:26:57.412Z,20.73
2022-09-18T02:29:23.676Z,20.71
2022-09-18T02:31:51.011Z,20.72
2022-09-18T02:34:17.553Z,20.72
2022-09-18T02:36:43.842Z,20.73
2022-09-18T02:39:10.133Z,20.71
2022-09-18T02:41:36.413Z,20.72
2022-09-18T02:44:02.716Z,20.70
2022-09-18T02:46:29.123Z,20.72
2022-09-18T02:48:55.660Z,20.73
2022-09-18T02:51:22.027Z,20.72
2022-09-18T02:53:48.345Z,20.71
2022-09-18T02:56:14.818Z,20.71
2022-09-18T02:58:41.176Z,20.70
2022-09-18T03:01:07.633Z,20.71
2022-09-18T03:03:34.126Z,20.71
2022-09-18T03:06:00.705Z,20.71
2022-09-18T03:08:27.501Z,20.71
2022-09-18T03:10:54.233Z,20.70
2022-09-18T03:13:21.276Z,20.69
2022-09-18T03:15:48.314Z,20.68
2022-09-18T03:18:15.288Z,20.66
2022-09-18T03:20:42.349Z,20.67
2022-09-18T03:23:09.635Z,20.67
2022-09-18T03:25:37.159Z,20.66
2022-09-18T03:28:03.805Z,20.68
2022-09-18T03:30:30.401Z,20.67
2022-09-18T03:32:57.141Z,20.67
2022-09-18T03:35:23.604Z,20.66
2022-09-18T03:37:50.008Z,20.66
2022-09-18T03:40:16.676Z,20.65
2022-09-18T03:42:43.018Z,20.65
2022-09-18T03:45:09.450Z,20.65
2022-09-18T03:47:36.816Z,20.65
2022-09-18T03:50:03.186Z,20.65
2022-09-18T03:52:29.452Z,20.64
2022-09-18T03:54:55.791Z,20.63
2022-09-18T03:57:22.054Z,20.64
2022-09-18T03:59:48.382Z,20.64
2022-09-18T04:02:14.736Z,20.63
2022-09-18T04:04:41.191Z,20.63
2022-09-18T04:07:07.564Z,20.63
2022-09-18T04:09:33.843Z,20.61
2022-09-18T04:12:00.189Z,20.61
2022-09-18T04:14:29.978Z,20.60
2022-09-18T04:16:56.818Z,20.61
2022-09-18T04:19:23.214Z,20.60
2022-09-18T04:21:49.834Z,20.59
2022-09-18T04:24:16.130Z,20.58
2022-09-18T04:26:42.394Z,20.59
2022-09-18T04:29:08.693Z,20.59
2022-09-18T04:31:35.451Z,20.60
2022-09-18T04:34:01.781Z,20.59
2022-09-18T04:36:28.064Z,20.58
2022-09-18T04:38:54.340Z,20.58
2022-09-18T04:41:20.923Z,20.57
2022-09-18T04:43:50.233Z,20.57
2022-09-18T04:46:16.564Z,20.56
2022-09-18T04:48:42.970Z,20.56
2022-09-18T04:51:09.336Z,20.57
2022-09-18T04:53:35.635Z,20.56
2022-09-18T04:56:01.983Z,20.56
2022-09-18T04:58:28.616Z,20.55
2022-09-18T05:00:55.055Z,20.56
2022-09-18T05:03:21.473Z,20.55
2022-09-18T05:05:47.795Z,20.55
2022-09-18T05:08:14.045Z,20.54
2022-09-18T05:10:40.394Z,20.53
2022-09-18T05:13:06.739Z,20.53
2022-09-18T05:15:33.537Z,20.55
2022-09-18T05:18:10.502Z,20.54
2022-09-18T05:20:37.647Z,20.51
2022-09-18T05:23:04.126Z,20.53
2022-09-18T05:25:30.497Z,20.52
2022-09-18T05:27:56.805Z,20.52
2022-09-18T05:30:23.243Z,20.51
2022-09-18T05:32:50.326Z,20.51
2022-09-18T05:35:16.684Z,20.50
2022-09-18T05:37:43.910Z,20.51
2022-09-18T05:40:10.243Z,20.51
2022-09-18T05:42:36.587Z,20.51
2022-09-18T05:45:02.909Z,20.49
2022-09-18T05:47:29.347Z,20.48
2022-09-18T05:49:55.703Z,20.48
2022-09-18T05:52:22.354Z,20.49
2022-09-18T05:54:48.622Z,20.49
2022-09-18T05:57:14.906Z,20.48
2022-09-18T05:59:41.232Z,20.47
2022-09-18T06:02:07.643Z,20.47
2022-09-18T06:04:34.213Z,20.47
2022-09-18T06:07:00.528Z,20.47
2022-09-18T06:09:26.908Z,20.47
2022-09-18T06:11:53.381Z,20.46
2022-09-18T06:14:19.593Z,20.46
2022-09-18T06:16:45.995Z,20.47
2022-09-18T06:19:12.417Z,20.46
2022-09-18T06:21:38.697Z,20.47
2022-09-18T06:24:05.178Z,20.44
2022-09-18T06:26:31.679Z,20.46
2022-09-18T06:28:58.091Z,20.44
2022-09-18T06:31:24.439Z,20.44
2022-09-18T06:33:50.963Z,20.42
2022-09-18T06:36:17.538Z,20.41
2022-09-18T06:38:44.233Z,20.41
2022-09-18T06:41:10.729Z,20.40
2022-09-18T06:43:37.194Z,20.40
2022-09-18T06:46:03.657Z,20.39
2022-09-18T06:48:29.967Z,20.40
2022-09-18T06:50:56.326Z,20.37
2022-09-18T06:53:22.692Z,20.38
2022-09-18T06:55:49.157Z,20.37
2022-09-18T06:58:15.478Z,20.38
2022-09-18T07:00:41.873Z,20.39
2022-09-18T07:03:08.426Z,20.36
2022-09-18T07:05:34.804Z,20.36
2022-09-18T07:08:01.407Z,20.37
2022-09-18T07:10:27.872Z,20.36
2022-09-18T07:12:54.210Z,20.37
2022-09-18T07:15:20.622Z,20.35
2022-09-18T07:17:47.131Z,20.36
2022-09-18T07:20:13.513Z,20.39
2022-09-18T07:22:43.702Z,20.35
2022-09-18T07:25:12.996Z,20.36
2022-09-18T07:27:39.567Z,20.30
2022-09-18T07:30:05.870Z,20.17
2022-09-18T07:32:32.174Z,20.10
2022-09-18T07:34:58.478Z,19.99
2022-09-18T07:37:25.102Z,19.86
2022-09-18T07:39:51.734Z,19.91
2022-09-18T07:42:18.045Z,19.98
2022-09-18T07:44:44.445Z,19.84
2022-09-18T07:47:10.840Z,19.82
2022-09-18T07:49:37.313Z,19.81
2022-09-18T07:52:03.690Z,19.83
2022-09-18T07:54:30.191Z,19.65
2022-09-18T07:56:56.495Z,19.61
2022-09-18T07:59:22.830Z,19.58
2022-09-18T08:01:49.361Z,19.61
2022-09-18T08:04:15.987Z,19.63
2022-09-18T08:06:42.569Z,19.63
2022-09-18T08:09:08.890Z,19.40
2022-09-18T08:11:35.671Z,19.49
2022-09-18T08:14:02.130Z,19.62
2022-09-18T08:16:28.532Z,19.47
2022-09-18T08:18:54.962Z,19.51
2022-09-18T08:21:21.593Z,19.60
2022-09-18T08:23:47.888Z,19.62
2022-09-18T08:26:20.045Z,19.49
2022-09-18T08:28:48.527Z,19.49
2022-09-18T08:31:15.067Z,19.51
2022-09-18T08:33:41.447Z,19.56
2022-09-18T08:36:08.162Z,19.46
2022-09-18T08:38:35.670Z,19.45
2022-09-18T08:41:01.925Z,19.49
2022-09-18T08:43:28.204Z,19.47
2022-09-18T08:45:54.671Z,19.39
2022-09-18T08:48:21.954Z,19.43
2022-09-18T08:50:48.494Z,19.47
2022-09-18T08:53:15.021Z,19.37
2022-09-18T08:55:41.446Z,19.41
2022-09-18T08:58:07.989Z,19.41
2022-09-18T09:00:35.419Z,19.53
2022-09-18T09:03:01.810Z,19.53
2022-09-18T09:05:28.194Z,19.55
2022-09-18T09:07:54.716Z,19.55
2022-09-18T09:10:21.054Z,19.57
2022-09-18T09:12:47.352Z,19.53
2022-09-18T09:15:16.125Z,19.51
2022-09-18T09:17:44.726Z,19.52
2022-09-18T09:20:11.046Z,19.59
2022-09-18T09:22:37.347Z,19.61
2022-09-18T09:25:04.186Z,19.55
2022-09-18T09:27:30.546Z,19.62
2022-09-18T09:29:56.911Z,19.65
2022-09-18T09:32:23.259Z,19.63
2022-09-18T09:34:49.959Z,19.66
2022-09-18T09:37:16.314Z,19.65
2022-09-18T09:39:42.627Z,19.68
2022-09-18T09:42:09.048Z,19.60
2022-09-18T09:44:35.452Z,19.65
2022-09-18T09:47:02.180Z,19.64
2022-09-18T09:49:28.538Z,19.66
2022-09-18T09:51:54.942Z,19.74
2022-09-18T09:54:22.058Z,19.77
2022-09-18T09:56:48.314Z,19.83
2022-09-18T09:59:14.642Z,19.88
2022-09-18T10:01:41.525Z,19.90
2022-09-18T10:04:07.966Z,19.90
2022-09-18T10:06:34.266Z,19.92
2022-09-18T10:09:00.664Z,19.93
2022-09-18T10:11:27.166Z,19.94
2022-09-18T10:13:53.460Z,19.96
2022-09-18T10:16:20.212Z,19.97
2022-09-18T10:18:47.505Z,19.97
2022-09-18T10:21:14.954Z,20.02
2022-09-18T10:23:41.437Z,20.05
2022-09-18T10:26:07.867Z,20.06
2022-09-18T10:28:34.277Z,20.09
2022-09-18T10:31:00.857Z,20.08
2022-09-18T10:33:27.365Z,20.12
2022-09-18T10:35:53.868Z,20.16
2022-09-18T10:38:20.354Z,20.18
2022-09-18T10:40:46.730Z,20.20
2022-09-18T10:43:13.035Z,20.18
2022-09-18T10:45:39.740Z,20.18
2022-09-18T10:48:06.137Z,20.13
2022-09-18T10:50:34.523Z,20.16
2022-09-18T10:53:01.094Z,20.15
2022-09-18T10:55:27.460Z,20.15
2022-09-18T10:57:53.767Z,20.15
2022-09-18T11:00:20.197Z,20.15
2022-09-18T11:02:46.699Z,20.15
2022-09-18T11:05:13.012Z,20.15
2022-09-18T11:07:39.449Z,20.17
2022-09-18T11:10:05.742Z,20.18
2022-09-18T11:12:32.098Z,20.16
2022-09-18T11:14:58.485Z,20.18
2022-09-18T11:17:24.878Z,20.18
2022-09-18T11:19:51.159Z,20.18
2022-09-18T11:22:17.591Z,20.19
2022-09-18T11:24:47.330Z,20.20
2022-09-18T11:27:14.191Z,20.21
2022-09-18T11:29:40.510Z,20.21
2022-09-18T11:32:06.876Z,20.21
2022-09-18T11:34:33.473Z,20.23
2022-09-18T11:37:00.022Z,20.22
2022-09-18T11:39:26.382Z,20.20
2022-09-18T11:41:53.094Z,20.22
2022-09-18T11:44:19.571Z,20.24
2022-09-18T11:46:45.960Z,20.23
2022-09-18T11:49:12.484Z,20.22
2022-09-18T11:51:38.785Z,20.24
2022-09-18T11:54:05.177Z,20.26
2022-09-18T11:56:31.591Z,20.25
2022-09-18T11:58:57.990Z,20.26
2022-09-18T12:01:24.666Z,20.24
2022-09-18T12:03:51.085Z,20.26
2022-09-18T12:06:17.451Z,20.26
2022-09-18T12:08:42.528Z,20.28
2022-09-18T12:11:09.095Z,20.28
2022-09-18T12:13:35.806Z,20.28
2022-09-18T12:16:02.536Z,20.27
2022-09-18T12:18:28.923Z,20.30
2022-09-18T12:20:55.261Z,20.30
2022-09-18T12:23:21.677Z,20.29
2022-09-18T12:25:48.409Z,20.30
2022-09-18T12:28:14.858Z,20.30
2022-09-18T12:30:41.283Z,20.29
2022-09-18T12:33:07.784Z,20.29
2022-09-18T12:35:34.175Z,20.30
2022-09-18T12:38:00.554Z,20.30
2022-09-18T12:40:28.042Z,20.32
2022-09-18T12:42:54.634Z,20.32
2022-09-18T12:45:21.084Z,20.32
2022-09-18T12:47:47.722Z,20.34
2022-09-18T12:50:14.149Z,20.34
2022-09-18T12:52:55.195Z,20.34
2022-09-18T12:55:26.988Z,20.34
2022-09-18T12:57:53.410Z,20.38
2022-09-18T13:00:19.811Z,20.36
2022-09-18T13:02:50.447Z,20.38
2022-09-18T13:05:17.684Z,20.40
2022-09-18T13:07:44.208Z,20.37
2022-09-18T13:10:10.510Z,20.40
2022-09-18T13:12:38.766Z,20.37
2022-09-18T13:15:05.293Z,20.39
2022-09-18T13:17:32.357Z,20.43
2022-09-18T13:19:58.640Z,20.42
2022-09-18T13:22:25.014Z,20.44
2022-09-18T13:24:51.553Z,20.48
2022-09-18T13:27:18.035Z,20.49
2022-09-18T13:29:44.927Z,20.49
2022-09-18T13:32:11.479Z,20.50
2022-09-18T13:34:37.802Z,20.51
2022-09-18T13:37:04.116Z,20.52
2022-09-18T13:39:40.953Z,20.54
2022-09-18T13:42:17.052Z,20.54
2022-09-18T13:44:43.552Z,20.56
2022-09-18T13:47:09.881Z,20.57
2022-09-18T13:49:36.483Z,20.59
2022-09-18T13:52:02.924Z,20.72
2022-09-18T13:54:29.315Z,20.68
2022-09-18T13:56:55.646Z,20.69
2022-09-18T13:59:22.005Z,20.72
2022-09-18T14:01:48.590Z,20.73
2022-09-18T14:04:14.901Z,20.76
2022-09-18T14:06:41.372Z,20.78
2022-09-18T14:09:07.730Z,20.80
2022-09-18T14:11:34.142Z,20.81
2022-09-18T14:14:00.630Z,20.81
2022-09-18T14:16:27.189Z,20.81
2022-09-18T14:18:53.711Z,20.83
2022-09-18T14:21:19.963Z,20.84
2022-09-18T14:23:46.544Z,20.86
2022-09-18T14:26:12.897Z,20.86
2022-09-18T14:28:39.234Z,20.88
2022-09-18T14:31:06.349Z,20.89
2022-09-18T14:33:33.769Z,20.91
2022-09-18T14:36:00.244Z,20.91
2022-09-18T14:38:27.055Z,20.92
2022-09-18T14:40:53.338Z,20.92
2022-09-18T14:43:19.895Z,20.84
2022-09-18T14:45:46.333Z,20.76
2022-09-18T14:48:15.528Z,20.72
2022-09-18T14:50:42.035Z,20.70
2022-09-18T14:53:08.374Z,20.69
2022-09-18T14:55:34.921Z,20.70
2022-09-18T14:58:03.056Z,20.71
2022-09-18T15:00:29.465Z,20.71
2022-09-18T15:02:55.931Z,20.69
2022-09-18T15:05:22.304Z,20.67
2022-09-18T15:07:48.779Z,20.68
2022-09-18T15:10:15.112Z,20.67
2022-09-18T15:12:41.469Z,20.67
2022-09-18T15:15:07.856Z,20.68
2022-09-18T15:17:34.180Z,20.66
2022-09-18T15:20:00.592Z,20.65
2022-09-18T15:22:26.929Z,20.65
2022-09-18T15:24:53.300Z,20.63
2022-09-18T15:27:19.777Z,20.63
2022-09-18T15:29:46.262Z,20.64
2022-09-18T15:32:12.632Z,20.62
2022-09-18T15:34:40.155Z,20.62
2022-09-18T15:37:06.468Z,20.61
2022-09-18T15:39:33.150Z,20.60
2022-09-18T15:41:59.945Z,20.59
2022-09-18T15:44:26.214Z,20.59
2022-09-18T15:46:52.799Z,20.57
2022-09-18T15:49:19.251Z,20.58
2022-09-18T15:51:45.697Z,20.56
2022-09-18T15:54:12.038Z,20.56
2022-09-18T15:56:38.346Z,20.55
2022-09-18T15:59:04.756Z,20.55
2022-09-18T16:01:31.299Z,20.54
2022-09-18T16:03:57.596Z,20.52
2022-09-18T16:06:24.115Z,20.53
2022-09-18T16:08:53.896Z,20.52
2022-09-18T16:11:20.774Z,20.52
2022-09-18T16:13:47.306Z,20.50
2022-09-18T16:16:13.712Z,20.49
2022-09-18T16:18:40.337Z,20.48
2022-09-18T16:21:06.635Z,20.47
2022-09-18T16:23:33.122Z,20.47
2022-09-18T16:25:59.394Z,20.48
2022-09-18T16:28:25.932Z,20.46
2022-09-18T16:30:52.355Z,20.46
2022-09-18T16:33:18.717Z,20.44
2022-09-18T16:35:45.149Z,20.44
2022-09-18T16:38:11.532Z,20.44
2022-09-18T16:40:38.022Z,20.43
2022-09-18T16:43:04.436Z,20.43
2022-09-18T16:45:30.934Z,20.43
2022-09-18T16:48:00.492Z,20.42
2022-09-18T16:50:27.323Z,20.42
2022-09-18T16:53:01.176Z,20.41
2022-09-18T16:55:29.376Z,20.40
2022-09-18T16:57:55.867Z,20.42
2022-09-18T17:00:22.317Z,20.41
2022-09-18T17:02:48.790Z,20.41
2022-09-18T17:05:15.107Z,20.40
2022-09-18T17:07:41.424Z,20.38
2022-09-18T17:10:07.687Z,20.39
2022-09-18T17:12:33.978Z,20.39
2022-09-18T17:15:00.533Z,20.39
2022-09-18T17:17:26.945Z,20.39
2022-09-18T17:19:53.298Z,20.39
2022-09-18T17:22:22.604Z,20.38
2022-09-18T17:24:49.271Z,20.37
2022-09-18T17:27:15.563Z,20.38
2022-09-18T17:29:41.869Z,20.36
2022-09-18T17:32:08.320Z,20.36
2022-09-18T17:34:34.766Z,20.36
2022-09-18T17:37:01.096Z,20.35
2022-09-18T17:39:27.491Z,20.34
2022-09-18T17:41:53.768Z,20.34
2022-09-18T17:44:20.093Z,20.34
2022-09-18T17:46:46.495Z,20.34
2022-09-18T17:49:13.049Z,20.32
2022-09-18T17:51:39.375Z,20.31
2022-09-18T17:54:05.746Z,20.32
2022-09-18T17:56:32.134Z,20.32
2022-09-18T17:58:58.479Z,20.32
2022-09-18T18:01:24.821Z,20.30
2022-09-18T18:03:51.173Z,20.30
2022-09-18T18:06:21.125Z,20.29
2022-09-18T18:08:48.089Z,20.28
2022-09-18T18:11:14.523Z,20.29
2022-09-18T18:13:41.165Z,20.28
2022-09-18T18:16:07.516Z,20.30
2022-09-18T18:18:33.870Z,20.27
2022-09-18T18:21:00.254Z,20.27
2022-09-18T18:23:26.720Z,20.27
2022-09-18T18:25:53.119Z,20.26
2022-09-18T18:28:20.281Z,20.26
2022-09-18T18:30:46.526Z,20.25
2022-09-18T18:33:12.844Z,20.25
2022-09-18T18:35:39.766Z,20.25
2022-09-18T18:38:06.156Z,20.25
2022-09-18T18:40:32.627Z,20.25
2022-09-18T18:42:58.977Z,20.24
2022-09-18T18:45:25.253Z,20.24
2022-09-18T18:47:51.596Z,20.24
2022-09-18T18:50:17.917Z,20.22
2022-09-18T18:52:44.436Z,20.22
2022-09-18T18:55:10.728Z,20.23
2022-09-18T18:57:37.121Z,20.22
2022-09-18T19:00:03.701Z,20.20
2022-09-18T19:02:30.064Z,20.21
2022-09-18T19:04:56.499Z,20.21
2022-09-18T19:07:23.128Z,20.21
2022-09-18T19:09:49.420Z,20.19
2022-09-18T19:12:15.766Z,20.19
2022-09-18T19:14:42.147Z,20.20
2022-09-18T19:17:08.457Z,20.16
2022-09-18T19:19:34.749Z,20.18
2022-09-18T19:22:02.688Z,20.18
2022-09-18T19:24:29.089Z,20.18
2022-09-18T19:26:55.575Z,20.18
2022-09-18T19:29:21.870Z,20.17
2022-09-18T19:31:48.326Z,20.17
2022-09-18T19:34:15.970Z,20.16
2022-09-18T19:36:42.308Z,20.15
2022-09-18T19:39:08.587Z,20.16
2022-09-18T19:41:34.860Z,20.15
2022-09-18T19:44:01.212Z,20.14
2022-09-18T19:46:27.648Z,20.15
2022-09-18T19:48:54.080Z,20.14
2022-09-18T19:51:20.415Z,20.13
2022-09-18T19:53:46.721Z,20.12
2022-09-18T19:56:33.171Z,20.12
2022-09-18T19:58:59.624Z,20.14
2022-09-18T20:01:26.072Z,20.12
2022-09-18T20:03:52.421Z,20.11
2022-09-18T20:06:18.729Z,20.14
2022-09-18T20:08:45.024Z,20.13
2022-09-18T20:11:11.533Z,20.11
2022-09-18T20:13:37.934Z,20.11
2022-09-18T20:16:04.525Z,20.11
2022-09-18T20:18:30.990Z,20.09
2022-09-18T20:20:57.422Z,20.10
2022-09-18T20:23:23.736Z,20.10
2022-09-18T20:25:50.032Z,20.09
2022-09-18T20:28:16.557Z,20.09
2022-09-18T20:30:43.177Z,20.08
2022-09-18T20:33:09.796Z,20.09
2022-09-18T20:35:36.156Z,20.08
2022-09-18T20:38:02.545Z,20.07
2022-09-18T20:40:29.245Z,20.08
2022-09-18T20:42:55.896Z,20.07
2022-09-18T20:45:22.269Z,20.08
2022-09-18T20:47:48.596Z,20.06
2022-09-18T20:50:14.993Z,20.07
2022-09-18T20:52:41.314Z,20.05
2022-09-18T20:55:07.680Z,20.05
2022-09-18T20:57:33.969Z,20.06
2022-09-18T21:00:00.202Z,20.06
2022-09-18T21:02:26.563Z,20.06
2022-09-18T21:04:52.973Z,20.06
2022-09-18T21:07:19.731Z,20.06
2022-09-18T21:09:46.241Z,20.06
2022-09-18T21:12:12.769Z,20.05
2022-09-18T21:14:39.084Z,20.05
2022-09-18T21:17:05.408Z,20.04
2022-09-18T21:19:31.688Z,20.05
2022-09-18T21:21:58.025Z,20.04
2022-09-18T21:24:24.362Z,20.03
2022-09-18T21:26:50.800Z,20.03
2022-09-18T21:29:17.391Z,20.04
2022-09-18T21:31:43.720Z,20.04
2022-09-18T21:34:10.002Z,20.04
2022-09-18T21:36:36.373Z,20.03
2022-09-18T21:39:02.733Z,20.03
2022-09-18T21:41:29.061Z,20.03
2022-09-18T21:43:55.424Z,20.02
2022-09-18T21:46:21.695Z,20.02
2022-09-18T21:48:48.026Z,20.01
2022-09-18T21:51:14.686Z,20.01
2022-09-18T21:53:41.024Z,20.00
2022-09-18T21:56:07.625Z,20.01
2022-09-18T21:58:35.976Z,20.01
2022-09-18T22:01:04.091Z,20.01
2022-09-18T22:03:30.436Z,20.01
2022-09-18T22:05:56.821Z,20.02
2022-09-18T22:08:23.149Z,20.01
2022-09-18T22:10:49.499Z,20.00
2022-09-18T22:13:15.792Z,19.99
2022-09-18T22:15:42.145Z,19.99
2022-09-18T22:18:08.649Z,20.00
2022-09-18T22:20:34.974Z,19.99
2022-09-18T22:23:01.390Z,19.99
2022-09-18T22:25:27.770Z,20.00
2022-09-18T22:27:54.100Z,19.99
2022-09-18T22:30:20.465Z,19.98
2022-09-18T22:32:46.766Z,19.99
2022-09-18T22:35:13.169Z,19.99
2022-09-18T22:37:39.486Z,20.00
2022-09-18T22:40:05.868Z,19.99
2022-09-18T22:42:32.215Z,20.00
2022-09-18T22:44:58.604Z,19.98
2022-09-18T22:47:25.234Z,19.98
2022-09-18T22:49:51.589Z,19.98
2022-09-18T22:52:17.941Z,19.98
2022-09-18T22:54:44.389Z,19.97
2022-09-18T22:57:10.948Z,19.98
2022-09-18T22:59:37.298Z,19.99
2022-09-18T23:02:03.680Z,19.98
2022-09-18T23:04:30.653Z,19.97
2022-09-18T23:06:57.028Z,19.97
2022-09-18T23:09:23.800Z,19.97
2022-09-18T23:11:51.306Z,19.96
2022-09-18T23:14:17.738Z,19.96
2022-09-18T23:16:44.016Z,19.97
2022-09-18T23:19:10.272Z,19.96
2022-09-18T23:21:36.583Z,19.96
2022-09-18T23:24:05.911Z,19.96
2022-09-18T23:26:35.044Z,19.95
2022-09-18T23:29:01.332Z,19.97
2022-09-18T23:31:27.696Z,19.94
2022-09-18T23:33:54.173Z,19.95
2022-09-18T23:36:20.588Z,19.96
2022-09-18T23:38:46.884Z,19.95
2022-09-18T23:41:13.191Z,19.93
2022-09-18T23:43:39.772Z,19.93
2022-09-18T23:46:06.053Z,19.94
2022-09-18T23:48:33.418Z,19.94
2022-09-18T23:50:59.827Z,19.94
2022-09-18T23:53:26.324Z,19.94
2022-09-18T23:55:52.578Z,19.94
2022-09-18T23:58:18.892Z,19.94
